Terminal Aerodrome Forecast
Issued by NWS

Current Version | Previous Version | Graphics & Text | Print | Product List | Glossary On
Versions: 1 2 3 4 5 6 7 8 9 10 11 12 13 14 15 16 17 18 19 20 21 22
000
FTUS41 KRLX 161121
TAFCKB
TAF
KCKB 161121Z 1612/1712 17004KT P6SM -RA BKN012 BKN050 OVC070
     FM161300 25008KT 1 1/2SM SHRA OVC010
     FM161600 27010G18KT 3SM -RA OVC012
     FM161900 32013G25KT 3SM -RA OVC016
     FM162100 32009KT P6SM OVC021
     FM162300 32008KT P6SM SCT023=

USA.gov is the U.S. government's official web portal to all federal, state and local government web resources and services.